createdAt,value
2018-03-28T00:02:11.781Z,100365.95
2018-03-28T00:04:37.835Z,100372.59
2018-03-28T00:07:03.995Z,100371.97
2018-03-28T00:09:30.153Z,100371.97
2018-03-28T00:11:56.176Z,100377.34
2018-03-28T00:14:22.318Z,100377.06
2018-03-28T00:16:48.456Z,100375.53
2018-03-28T00:19:14.498Z,100385.38
2018-03-28T00:21:40.495Z,100375.59
2018-03-28T00:24:06.546Z,100379.37
2018-03-28T00:26:32.679Z,100377.34
2018-03-28T00:29:05.632Z,100373.78
2018-03-28T00:31:31.710Z,100381.05
2018-03-28T00:33:57.736Z,100381.25
2018-03-28T00:36:23.743Z,100380.77
2018-03-28T00:38:50.245Z,100377.55
2018-03-28T00:41:16.417Z,100375.03
2018-03-28T00:43:42.521Z,100375.03
2018-03-28T00:46:08.506Z,100370.14
2018-03-28T00:48:34.521Z,100357.89
2018-03-28T00:51:11.782Z,100367.41
2018-03-28T00:53:37.802Z,100366.56
2018-03-28T00:56:03.797Z,100374.39
2018-03-28T00:58:29.945Z,100374.03
2018-03-28T01:00:56.102Z,100375.58
2018-03-28T01:03:22.216Z,100378.36
2018-03-28T01:05:48.212Z,100373.96
2018-03-28T01:08:14.331Z,100370.40
2018-03-28T01:10:40.402Z,100371.58
2018-03-28T01:13:06.453Z,100378.54
2018-03-28T01:15:32.477Z,100375.17
2018-03-28T01:17:58.548Z,100377.69
2018-03-28T01:20:24.654Z,100369.85
2018-03-28T01:22:50.635Z,100364.33
2018-03-28T01:25:16.638Z,100381.38
2018-03-28T01:27:42.768Z,100378.72
2018-03-28T01:30:08.763Z,100373.81
2018-03-28T01:32:34.761Z,100370.59
2018-03-28T01:35:00.766Z,100367.31
2018-03-28T01:37:26.799Z,100366.91
2018-03-28T01:39:52.807Z,100370.42
2018-03-28T01:42:18.811Z,100371.88
2018-03-28T01:44:44.798Z,100366.92
2018-03-28T01:47:10.777Z,100368.38
2018-03-28T01:49:36.803Z,100369.66
2018-03-28T01:52:02.822Z,100366.86
2018-03-28T01:54:28.840Z,100361.27
2018-03-28T01:56:54.869Z,100366.00
2018-03-28T01:59:20.863Z,100365.92
2018-03-28T02:01:46.871Z,100361.38
2018-03-28T02:04:12.868Z,100357.27
2018-03-28T02:06:38.865Z,100357.71
2018-03-28T02:09:04.927Z,100353.48
2018-03-28T02:11:30.927Z,100363.76
2018-03-28T02:13:56.964Z,100352.41
2018-03-28T02:16:22.970Z,100355.19
2018-03-28T02:18:48.986Z,100355.05
2018-03-28T02:21:15.053Z,100350.30
2018-03-28T02:23:41.042Z,100350.52
2018-03-28T02:26:07.576Z,100352.58
2018-03-28T02:28:33.640Z,100361.66
2018-03-28T02:30:59.694Z,100357.97
2018-03-28T02:33:25.772Z,100361.12
2018-03-28T02:35:51.967Z,100359.45
2018-03-28T02:38:18.059Z,100363.98
2018-03-28T02:40:44.069Z,100366.16
2018-03-28T02:43:10.123Z,100364.69
2018-03-28T02:45:36.361Z,100361.84
2018-03-28T02:48:02.455Z,100365.81
2018-03-28T02:50:28.473Z,100368.68
2018-03-28T02:52:54.482Z,100361.06
2018-03-28T02:55:28.142Z,100362.74
2018-03-28T02:57:54.272Z,100364.69
2018-03-28T03:00:20.274Z,100362.87
2018-03-28T03:02:46.355Z,100362.25
2018-03-28T03:05:12.410Z,100360.16
2018-03-28T03:07:38.434Z,100365.47
2018-03-28T03:10:04.456Z,100359.39
2018-03-28T03:12:30.520Z,100353.32
2018-03-28T03:14:56.574Z,100349.90
2018-03-28T03:17:22.597Z,100364.81
2018-03-28T03:19:48.658Z,100356.92
2018-03-28T03:22:14.725Z,100363.14
2018-03-28T03:24:40.765Z,100364.75
2018-03-28T03:27:06.785Z,100368.80
2018-03-28T03:29:32.786Z,100368.52
2018-03-28T03:31:58.821Z,100370.68
2018-03-28T03:34:24.837Z,100369.91
2018-03-28T03:36:50.900Z,100372.01
2018-03-28T03:39:16.926Z,100369.21
2018-03-28T03:41:42.926Z,100363.42
2018-03-28T03:44:08.972Z,100364.53
2018-03-28T03:46:35.000Z,100368.72
2018-03-28T03:49:00.995Z,100367.61
2018-03-28T03:51:34.036Z,100365.58
2018-03-28T03:54:00.121Z,100366.14
2018-03-28T03:56:26.269Z,100365.86
2018-03-28T03:58:52.325Z,100373.61
2018-03-28T04:01:25.380Z,100367.13
2018-03-28T04:03:51.375Z,100361.47
2018-03-28T04:06:17.365Z,100357.13
2018-03-28T04:08:43.384Z,100340.31
2018-03-28T04:11:09.440Z,100335.81
2018-03-28T04:13:35.432Z,100338.47
2018-03-28T04:16:01.580Z,100342.83
2018-03-28T04:18:27.582Z,100348.06
2018-03-28T04:20:53.615Z,100354.27
2018-03-28T04:23:19.712Z,100366.55
2018-03-28T04:25:45.766Z,100366.14
2018-03-28T04:28:11.803Z,100363.69
2018-03-28T04:30:37.824Z,100360.34
2018-03-28T04:33:03.990Z,100366.77
2018-03-28T04:35:30.112Z,100363.84
2018-03-28T04:37:56.182Z,100355.04
2018-03-28T04:40:22.258Z,100358.17
2018-03-28T04:42:48.320Z,100357.97
2018-03-28T04:45:14.421Z,100354.41
2018-03-28T04:47:40.440Z,100356.42
2018-03-28T04:50:06.486Z,100349.45
2018-03-28T04:52:32.603Z,100344.70
2018-03-28T04:54:58.685Z,100356.28
2018-03-28T04:57:24.778Z,100342.73
2018-03-28T04:59:50.801Z,100339.18
2018-03-28T05:02:16.953Z,100339.48
2018-03-28T05:04:43.026Z,100342.39
2018-03-28T05:07:09.091Z,100344.83
2018-03-28T05:09:35.148Z,100340.86
2018-03-28T05:12:01.165Z,100337.11
2018-03-28T05:14:27.178Z,100334.66
2018-03-28T05:16:53.214Z,100327.83
2018-03-28T05:19:19.223Z,100333.97
2018-03-28T05:21:45.889Z,100331.19
2018-03-28T05:24:11.946Z,100322.33
2018-03-28T05:26:38.006Z,100326.66
2018-03-28T05:29:04.080Z,100325.33
2018-03-28T05:31:30.166Z,100325.67
2018-03-28T05:33:56.238Z,100321.84
2018-03-28T05:36:22.266Z,100321.11
2018-03-28T05:38:48.311Z,100320.13
2018-03-28T05:41:15.326Z,100324.84
2018-03-28T05:43:41.374Z,100322.53
2018-03-28T05:46:07.611Z,100323.58
2018-03-28T05:48:33.619Z,100328.22
2018-03-28T05:50:59.623Z,100323.44
2018-03-28T05:53:26.662Z,100320.62
2018-03-28T05:55:52.708Z,100323.48
2018-03-28T05:58:18.726Z,100311.48
2018-03-28T06:00:44.968Z,100311.06
2018-03-28T06:03:11.008Z,100305.27
2018-03-28T06:05:37.018Z,100299.27
2018-03-28T06:08:03.013Z,100300.45
2018-03-28T06:10:29.044Z,100296.27
2018-03-28T06:12:55.080Z,100307.09
2018-03-28T06:15:21.110Z,100301.78
2018-03-28T06:17:47.133Z,100301.64
2018-03-28T06:20:13.129Z,100299.55
2018-03-28T06:22:39.130Z,100287.78
2018-03-28T06:25:05.136Z,100282.72
2018-03-28T06:27:31.865Z,100288.09
2018-03-28T06:29:57.929Z,100279.55
2018-03-28T06:32:23.941Z,100278.36
2018-03-28T06:34:50.071Z,100273.12
2018-03-28T06:37:16.098Z,100267.59
2018-03-28T06:39:42.202Z,100260.75
2018-03-28T06:42:08.206Z,100255.02
2018-03-28T06:44:34.281Z,100247.71
2018-03-28T06:47:00.510Z,100245.41
2018-03-28T06:49:26.582Z,100254.61
2018-03-28T06:51:52.605Z,100252.98
2018-03-28T06:54:18.635Z,100245.91
2018-03-28T06:56:44.810Z,100246.62
2018-03-28T06:59:10.807Z,100249.45
2018-03-28T07:01:36.804Z,100244.95
2018-03-28T07:04:02.816Z,100245.14
2018-03-28T07:06:28.866Z,100242.12
2018-03-28T07:08:54.866Z,100244.45
2018-03-28T07:11:20.909Z,100238.33
2018-03-28T07:13:46.942Z,100241.86
2018-03-28T07:16:12.975Z,100243.48
2018-03-28T07:18:38.981Z,100251.92
2018-03-28T07:21:05.058Z,100246.78
2018-03-28T07:23:31.118Z,100245.57
2018-03-28T07:25:57.178Z,100252.01
2018-03-28T07:28:23.266Z,100250.53
2018-03-28T07:30:49.274Z,100235.28
2018-03-28T07:33:15.314Z,100235.28
2018-03-28T07:35:41.353Z,100240.03
2018-03-28T07:38:07.374Z,100233.58
2018-03-28T07:40:33.401Z,100231.00
2018-03-28T07:42:59.398Z,100230.47
2018-03-28T07:45:25.482Z,100231.27
2018-03-28T07:47:51.482Z,100233.55
2018-03-28T07:50:18.259Z,100228.61
2018-03-28T07:52:44.340Z,100225.86
2018-03-28T07:55:10.360Z,100227.34
2018-03-28T07:57:36.385Z,100217.81
2018-03-28T08:00:02.502Z,100226.92
2018-03-28T08:02:28.579Z,100223.77
2018-03-28T08:04:54.598Z,100220.20
2018-03-28T08:07:20.646Z,100216.67
2018-03-28T08:09:46.796Z,100216.67
2018-03-28T08:12:12.787Z,100217.55
2018-03-28T08:14:38.804Z,100212.49
2018-03-28T08:17:04.815Z,100220.37
2018-03-28T08:19:30.866Z,100211.70
2018-03-28T08:21:56.850Z,100210.03
2018-03-28T08:24:22.889Z,100211.17
2018-03-28T08:26:48.889Z,100210.31
2018-03-28T08:29:14.906Z,100212.17
2018-03-28T08:31:40.946Z,100205.98
2018-03-28T08:34:06.947Z,100205.77
2018-03-28T08:36:33.051Z,100206.31
2018-03-28T08:38:59.107Z,100211.94
2018-03-28T08:41:25.111Z,100206.25
2018-03-28T08:43:51.111Z,100212.02
2018-03-28T08:46:17.127Z,100212.00
2018-03-28T08:48:43.111Z,100208.13
2018-03-28T08:51:09.103Z,100201.48
2018-03-28T08:53:35.123Z,100203.09
2018-03-28T08:56:01.169Z,100198.81
2018-03-28T08:58:27.342Z,100192.50
2018-03-28T09:00:53.401Z,100187.30
2018-03-28T09:03:19.554Z,100186.20
2018-03-28T09:05:45.558Z,100187.27
2018-03-28T09:08:11.634Z,100178.57
2018-03-28T09:10:37.629Z,100181.72
2018-03-28T09:13:03.629Z,100174.09
2018-03-28T09:15:29.672Z,100170.97
2018-03-28T09:17:55.773Z,100168.25
2018-03-28T09:20:21.797Z,100166.92
2018-03-28T09:22:47.807Z,100166.11
2018-03-28T09:25:13.919Z,100163.53
2018-03-28T09:27:39.996Z,100169.69
2018-03-28T09:30:06.045Z,100165.63
2018-03-28T09:32:32.110Z,100160.30
2018-03-28T09:34:58.308Z,100163.45
2018-03-28T09:37:24.286Z,100161.11
2018-03-28T09:39:50.454Z,100155.84
2018-03-28T09:42:16.469Z,100155.98
2018-03-28T09:44:42.558Z,100151.08
2018-03-28T09:47:08.868Z,100159.81
2018-03-28T09:49:34.909Z,100147.12
2018-03-28T09:52:00.910Z,100145.55
2018-03-28T09:54:26.923Z,100139.98
2018-03-28T09:56:52.965Z,100136.27
2018-03-28T09:59:18.987Z,100135.58
2018-03-28T10:01:51.032Z,100132.02
2018-03-28T10:04:17.078Z,100137.28
2018-03-28T10:06:43.137Z,100127.88
2018-03-28T10:09:09.219Z,100129.66
2018-03-28T10:11:35.260Z,100127.59
2018-03-28T10:14:01.315Z,100126.83
2018-03-28T10:16:27.347Z,100123.23
2018-03-28T10:18:53.354Z,100121.34
2018-03-28T10:21:19.380Z,100104.65
2018-03-28T10:23:45.397Z,100100.48
2018-03-28T10:26:11.419Z,100102.38
2018-03-28T10:28:37.547Z,100097.84
2018-03-28T10:31:03.650Z,100093.53
2018-03-28T10:33:29.681Z,100087.05
2018-03-28T10:35:55.725Z,100081.88
2018-03-28T10:38:28.572Z,100074.51
2018-03-28T10:40:54.583Z,100066.72
2018-03-28T10:43:20.617Z,100061.29
2018-03-28T10:45:46.698Z,100062.96
2018-03-28T10:48:12.769Z,100057.11
2018-03-28T10:50:38.800Z,100045.35
2018-03-28T10:53:04.817Z,100039.84
2018-03-28T10:55:30.948Z,100037.76
2018-03-28T10:57:56.990Z,100039.58
2018-03-28T11:00:23.032Z,100023.20
2018-03-28T11:02:49.111Z,100022.27
2018-03-28T11:05:15.169Z,100015.96
2018-03-28T11:07:41.190Z,100011.43
2018-03-28T11:10:07.296Z,100014.34
2018-03-28T11:12:33.337Z,100001.26
2018-03-28T11:14:59.319Z,99999.94
2018-03-28T11:17:25.379Z,99994.63
2018-03-28T11:19:51.396Z,99987.82
2018-03-28T11:22:17.430Z,99987.48
2018-03-28T11:24:43.454Z,99978.66
2018-03-28T11:27:09.507Z,99974.09
2018-03-28T11:29:35.644Z,99972.50
2018-03-28T11:32:01.663Z,99967.70
2018-03-28T11:34:27.648Z,99964.77
2018-03-28T11:36:53.778Z,99961.69
2018-03-28T11:39:19.897Z,99966.64
2018-03-28T11:41:45.941Z,99963.38
2018-03-28T11:44:11.974Z,99956.55
2018-03-28T11:46:38.076Z,99954.70
2018-03-28T11:49:04.138Z,99945.12
2018-03-28T11:51:30.181Z,99938.24
2018-03-28T11:53:56.230Z,99930.77
2018-03-28T11:56:22.363Z,99927.02
2018-03-28T11:58:48.489Z,99914.80
2018-03-28T12:01:14.613Z,99911.41
2018-03-28T12:03:40.629Z,99903.42
2018-03-28T12:06:06.679Z,99900.42
2018-03-28T12:08:32.714Z,99895.13
2018-03-28T12:10:58.743Z,99884.02
2018-03-28T12:13:24.732Z,99888.80
2018-03-28T12:15:50.871Z,99887.08
2018-03-28T12:18:16.883Z,99883.33
2018-03-28T12:20:42.972Z,99887.14
2018-03-28T12:23:09.013Z,99879.02
2018-03-28T12:25:35.024Z,99877.65
2018-03-28T12:28:01.037Z,99870.45
2018-03-28T12:30:27.073Z,99866.72
2018-03-28T12:32:53.101Z,99859.19
2018-03-28T12:35:19.123Z,99861.05
2018-03-28T12:37:45.147Z,99867.70
2018-03-28T12:40:11.727Z,99861.84
2018-03-28T12:42:37.828Z,99866.71
2018-03-28T12:45:03.938Z,99862.59
2018-03-28T12:47:29.954Z,99858.77
2018-03-28T12:49:56.034Z,99854.42
2018-03-28T12:52:22.166Z,99851.25
2018-03-28T12:54:48.234Z,99844.22
2018-03-28T12:57:14.283Z,99842.61
2018-03-28T12:59:40.263Z,99839.86
2018-03-28T13:02:06.459Z,99835.91
2018-03-28T13:04:32.518Z,99827.06
2018-03-28T13:06:58.534Z,99816.95
2018-03-28T13:09:24.570Z,99810.75
2018-03-28T13:11:50.726Z,99810.48
2018-03-28T13:14:16.769Z,99805.41
2018-03-28T13:16:42.795Z,99797.52
2018-03-28T13:19:08.792Z,99789.40
2018-03-28T13:21:34.941Z,99783.64
2018-03-28T13:24:00.955Z,99781.34
2018-03-28T13:26:26.973Z,99769.59
2018-03-28T13:28:52.985Z,99769.83
2018-03-28T13:31:19.006Z,99767.36
2018-03-28T13:33:45.070Z,99757.09
2018-03-28T13:36:11.099Z,99749.45
2018-03-28T13:38:37.175Z,99746.19
2018-03-28T13:41:03.171Z,99743.81
2018-03-28T13:43:29.254Z,99740.40
2018-03-28T13:45:55.292Z,99737.25
2018-03-28T13:48:21.325Z,99736.27
2018-03-28T13:50:47.336Z,99728.38
2018-03-28T13:53:13.319Z,99723.39
2018-03-28T13:55:39.670Z,99721.59
2018-03-28T13:58:05.681Z,99729.92
2018-03-28T14:00:31.711Z,99722.53
2018-03-28T14:02:57.796Z,99716.20
2018-03-28T14:05:23.875Z,99715.84
2018-03-28T14:07:49.881Z,99711.30
2018-03-28T14:10:15.912Z,99713.79
2018-03-28T14:12:41.998Z,99707.31
2018-03-28T14:15:08.111Z,99712.55
2018-03-28T14:17:34.120Z,99707.34
2018-03-28T14:20:00.147Z,99701.39
2018-03-28T14:22:26.326Z,99698.46
2018-03-28T14:24:52.379Z,99695.31
2018-03-28T14:27:18.382Z,99688.69
2018-03-28T14:29:44.423Z,99687.59
2018-03-28T14:32:10.560Z,99681.53
2018-03-28T14:34:36.685Z,99677.50
2018-03-28T14:37:02.751Z,99671.73
2018-03-28T14:39:28.790Z,99667.53
2018-03-28T14:41:54.870Z,99668.36
2018-03-28T14:44:20.889Z,99657.30
2018-03-28T14:46:46.911Z,99656.35
2018-03-28T14:49:12.922Z,99663.24
2018-03-28T14:51:38.989Z,99659.09
2018-03-28T14:54:05.075Z,99662.74
2018-03-28T14:56:31.147Z,99670.59
2018-03-28T14:58:57.194Z,99666.35
2018-03-28T15:01:23.228Z,99674.11
2018-03-28T15:03:49.229Z,99674.55
2018-03-28T15:06:15.232Z,99674.92
2018-03-28T15:08:41.276Z,99675.77
2018-03-28T15:11:07.341Z,99669.83
2018-03-28T15:13:33.376Z,99666.30
2018-03-28T15:15:59.396Z,99655.27
2018-03-28T15:18:25.427Z,99650.23
2018-03-28T15:20:51.425Z,99657.70
2018-03-28T15:23:17.443Z,99651.30
2018-03-28T15:25:44.040Z,99649.53
2018-03-28T15:28:10.070Z,99651.12
2018-03-28T15:30:36.078Z,99653.38
2018-03-28T15:33:03.162Z,99658.13
2018-03-28T15:35:29.226Z,99658.31
2018-03-28T15:37:55.246Z,99658.84
2018-03-28T15:40:21.340Z,99655.08
2018-03-28T15:42:47.366Z,99650.09
2018-03-28T15:45:13.405Z,99650.42
2018-03-28T15:47:39.455Z,99653.16
2018-03-28T15:50:05.487Z,99654.98
2018-03-28T15:52:31.574Z,99655.43
2018-03-28T15:54:57.630Z,99656.23
2018-03-28T15:57:23.786Z,99666.68
2018-03-28T15:59:49.798Z,99670.88
2018-03-28T16:02:15.823Z,99676.25
2018-03-28T16:04:41.846Z,99678.84
2018-03-28T16:07:07.950Z,99681.52
2018-03-28T16:09:33.982Z,99686.69
2018-03-28T16:12:00.673Z,99685.56
2018-03-28T16:14:26.753Z,99691.13
2018-03-28T16:16:52.757Z,99694.84
2018-03-28T16:19:18.908Z,99708.52
2018-03-28T16:21:44.921Z,99711.06
2018-03-28T16:24:10.983Z,99707.48
2018-03-28T16:26:37.058Z,99718.58
2018-03-28T16:29:03.075Z,99733.17
2018-03-28T16:31:29.071Z,99738.27
2018-03-28T16:33:55.094Z,99747.90
2018-03-28T16:36:21.149Z,99748.30
2018-03-28T16:38:47.126Z,99749.50
2018-03-28T16:41:13.237Z,99751.86
2018-03-28T16:43:39.248Z,99762.31
2018-03-28T16:46:05.289Z,99759.98
2018-03-28T16:48:31.304Z,99759.78
2018-03-28T16:50:57.322Z,99767.29
2018-03-28T16:53:23.342Z,99773.69
2018-03-28T16:55:49.427Z,99778.45
2018-03-28T16:58:15.488Z,99774.83
2018-03-28T17:00:41.538Z,99779.41
2018-03-28T17:03:07.701Z,99784.54
2018-03-28T17:05:34.473Z,99792.75
2018-03-28T17:08:00.500Z,99799.69
2018-03-28T17:10:26.613Z,99804.96
2018-03-28T17:12:52.715Z,99815.40
2018-03-28T17:15:18.832Z,99821.84
2018-03-28T17:17:44.889Z,99820.33
2018-03-28T17:20:10.923Z,99826.29
2018-03-28T17:22:36.934Z,99829.22
2018-03-28T17:25:03.040Z,99842.16
2018-03-28T17:27:29.088Z,99851.31
2018-03-28T17:29:55.150Z,99852.36
2018-03-28T17:32:21.175Z,99860.22
2018-03-28T17:34:47.199Z,99859.18
2018-03-28T17:37:13.274Z,99857.98
2018-03-28T17:39:39.350Z,99870.78
2018-03-28T17:42:05.385Z,99877.73
2018-03-28T17:44:31.393Z,99875.02
2018-03-28T17:46:57.463Z,99877.86
2018-03-28T17:49:23.494Z,99888.21
2018-03-28T17:51:49.537Z,99889.27
2018-03-28T17:54:15.523Z,99885.31
2018-03-28T17:56:41.605Z,99887.76
2018-03-28T17:59:08.746Z,99899.73
2018-03-28T18:01:34.848Z,99897.72
2018-03-28T18:04:00.878Z,99904.45
2018-03-28T18:06:27.007Z,99905.36
2018-03-28T18:08:53.011Z,99906.47
2018-03-28T18:11:19.054Z,99907.58
2018-03-28T18:13:45.155Z,99916.09
2018-03-28T18:16:11.229Z,99914.20
2018-03-28T18:18:37.208Z,99927.56
2018-03-28T18:21:03.268Z,99927.01
2018-03-28T18:23:29.327Z,99942.38
2018-03-28T18:25:55.381Z,99946.32
2018-03-28T18:28:21.475Z,99955.08
2018-03-28T18:30:47.550Z,99960.94
2018-03-28T18:33:13.571Z,99967.27
2018-03-28T18:35:39.581Z,99983.08
2018-03-28T18:38:05.691Z,99987.04
2018-03-28T18:40:31.855Z,99997.56
2018-03-28T18:42:57.807Z,99992.00
2018-03-28T18:45:23.869Z,99995.84
2018-03-28T18:47:49.976Z,100001.61
2018-03-28T18:50:16.071Z,99994.17
2018-03-28T18:52:42.089Z,99993.27
2018-03-28T18:55:08.752Z,99987.77
2018-03-28T18:57:34.788Z,99991.53
2018-03-28T19:00:00.844Z,100002.22
2018-03-28T19:02:26.972Z,100010.09
2018-03-28T19:04:53.006Z,100005.56
2018-03-28T19:07:19.013Z,100017.47
2018-03-28T19:09:45.002Z,100027.69
2018-03-28T19:12:11.056Z,100032.91
2018-03-28T19:14:37.070Z,100046.95
2018-03-28T19:17:03.081Z,100041.33
2018-03-28T19:19:29.094Z,100045.64
2018-03-28T19:21:55.135Z,100051.67
2018-03-28T19:24:21.170Z,100056.55
2018-03-28T19:26:47.227Z,100051.56
2018-03-28T19:29:13.253Z,100064.22
2018-03-28T19:31:39.329Z,100074.02
2018-03-28T19:34:05.383Z,100072.16
2018-03-28T19:36:31.458Z,100075.77
2018-03-28T19:38:57.500Z,100078.28
2018-03-28T19:41:23.614Z,100073.05
2018-03-28T19:43:49.678Z,100080.50
2018-03-28T19:46:15.909Z,100078.34
2018-03-28T19:48:41.992Z,100084.05
2018-03-28T19:51:08.008Z,100091.20
2018-03-28T19:53:34.198Z,100094.63
2018-03-28T19:56:00.273Z,100100.88
2018-03-28T19:58:26.421Z,100098.91
2018-03-28T20:00:52.470Z,100100.37
2018-03-28T20:03:18.528Z,100097.23
2018-03-28T20:05:44.654Z,100094.02
2018-03-28T20:08:10.763Z,100094.80
2018-03-28T20:10:36.782Z,100098.03
2018-03-28T20:13:02.809Z,100097.26
2018-03-28T20:15:28.921Z,100101.22
2018-03-28T20:17:54.935Z,100108.19
2018-03-28T20:20:20.949Z,100109.09
2018-03-28T20:22:46.974Z,100113.41
2018-03-28T20:25:12.970Z,100116.86
2018-03-28T20:27:39.029Z,100127.13
2018-03-28T20:30:05.094Z,100122.69
2018-03-28T20:32:31.113Z,100128.81
2018-03-28T20:34:57.118Z,100127.00
2018-03-28T20:37:23.165Z,100130.36
2018-03-28T20:39:49.211Z,100139.25
2018-03-28T20:42:15.217Z,100137.38
2018-03-28T20:44:41.305Z,100139.73
2018-03-28T20:47:07.335Z,100139.95
2018-03-28T20:49:33.349Z,100135.70
2018-03-28T20:51:59.400Z,100145.31
2018-03-28T20:54:25.409Z,100139.25
2018-03-28T20:56:51.427Z,100144.41
2018-03-28T20:59:17.427Z,100151.02
2018-03-28T21:01:43.508Z,100149.63
2018-03-28T21:04:09.554Z,100148.23
2018-03-28T21:06:35.602Z,100153.04
2018-03-28T21:09:01.673Z,100149.56
2018-03-28T21:11:27.651Z,100152.01
2018-03-28T21:13:53.775Z,100154.66
2018-03-28T21:16:19.819Z,100157.65
2018-03-28T21:18:45.885Z,100159.74
2018-03-28T21:21:11.884Z,100163.22
2018-03-28T21:23:38.031Z,100167.80
2018-03-28T21:26:04.190Z,100175.31
2018-03-28T21:28:30.268Z,100175.95
2018-03-28T21:30:56.455Z,100173.25
2018-03-28T21:33:22.522Z,100172.34
2018-03-28T21:35:48.592Z,100174.41
2018-03-28T21:38:14.658Z,100179.98
2018-03-28T21:40:40.649Z,100179.02
2018-03-28T21:43:06.711Z,100174.34
2018-03-28T21:45:32.781Z,100176.37
2018-03-28T21:47:58.833Z,100180.47
2018-03-28T21:50:24.833Z,100180.89
2018-03-28T21:52:50.908Z,100186.23
2018-03-28T21:55:16.941Z,100176.31
2018-03-28T21:57:42.976Z,100184.30
2018-03-28T22:00:09.015Z,100187.98
2018-03-28T22:02:35.035Z,100190.59
2018-03-28T22:05:01.931Z,100182.78
2018-03-28T22:07:28.569Z,100187.11
2018-03-28T22:09:54.663Z,100189.33
2018-03-28T22:12:20.687Z,100189.75
2018-03-28T22:14:46.703Z,100192.45
2018-03-28T22:17:12.851Z,100198.88
2018-03-28T22:19:38.851Z,100194.13
2018-03-28T22:22:04.893Z,100203.09
2018-03-28T22:24:30.949Z,100210.83
2018-03-28T22:26:56.943Z,100210.89
2018-03-28T22:29:22.980Z,100215.05
2018-03-28T22:31:49.329Z,100229.88
2018-03-28T22:34:15.327Z,100221.53
2018-03-28T22:36:41.335Z,100230.91
2018-03-28T22:39:07.467Z,100236.17
2018-03-28T22:41:33.499Z,100234.91
2018-03-28T22:43:59.505Z,100242.23
2018-03-28T22:46:25.495Z,100236.87
2018-03-28T22:48:51.519Z,100235.75
2018-03-28T22:51:17.510Z,100237.91
2018-03-28T22:53:43.524Z,100232.69
2018-03-28T22:56:09.638Z,100239.10
2018-03-28T22:58:35.694Z,100243.42
2018-03-28T23:01:01.714Z,100234.66
2018-03-28T23:03:27.698Z,100239.39
2018-03-28T23:05:53.769Z,100235.72
2018-03-28T23:08:19.860Z,100231.62
2018-03-28T23:10:45.880Z,100233.55
2018-03-28T23:13:11.921Z,100229.91
2018-03-28T23:15:38.004Z,100229.17
2018-03-28T23:18:04.697Z,100239.75
2018-03-28T23:20:30.764Z,100238.07
2018-03-28T23:22:56.844Z,100239.75
2018-03-28T23:25:22.845Z,100237.75
2018-03-28T23:27:48.850Z,100242.30
2018-03-28T23:30:15.009Z,100234.78
2018-03-28T23:32:41.082Z,100243.97
2018-03-28T23:35:07.078Z,100242.88
2018-03-28T23:37:33.074Z,100243.58
2018-03-28T23:39:59.109Z,100231.00
2018-03-28T23:42:25.153Z,100233.30
2018-03-28T23:44:51.165Z,100232.94
2018-03-28T23:47:17.605Z,100230.52
2018-03-28T23:49:43.591Z,100235.97
2018-03-28T23:52:09.630Z,100240.97
2018-03-28T23:54:35.646Z,100238.25
2018-03-28T23:57:01.678Z,100238.12
2018-03-28T23:59:27.707Z,100239.96
